sensor_id;sensor_type;location;lat;lon;timestamp;P1;durP1;ratioP1;P2;durP2;ratioP2
81150;SDS011;70629;-26.026;27.976;2023-11-18T00:00:17;15.32;;;10.02;;
81150;SDS011;70629;-26.026;27.976;2023-11-18T00:00:57;16.42;;;9.63;;
81150;SDS011;70629;-26.026;27.976;2023-11-18T00:01:37;12.60;;;9.43;;
81150;SDS011;70629;-26.026;27.976;2023-11-18T00:02:17;16.88;;;9.27;;
81150;SDS011;70629;-26.026;27.976;2023-11-18T00:02:57;14.57;;;9.18;;
81150;SDS011;70629;-26.026;27.976;2023-11-18T00:03:37;14.80;;;8.32;;
81150;SDS011;70629;-26.026;27.976;2023-11-18T00:04:18;15.07;;;9.60;;
81150;SDS011;70629;-26.026;27.976;2023-11-18T00:04:58;12.55;;;8.85;;
81150;SDS011;70629;-26.026;27.976;2023-11-18T00:05:38;15.10;;;8.98;;
81150;SDS011;70629;-26.026;27.976;2023-11-18T00:06:19;12.00;;;6.25;;
81150;SDS011;70629;-26.026;27.976;2023-11-18T00:06:59;12.82;;;5.93;;
81150;SDS011;70629;-26.026;27.976;2023-11-18T00:07:40;7.13;;;5.32;;
81150;SDS011;70629;-26.026;27.976;2023-11-18T00:08:20;10.32;;;5.53;;
81150;SDS011;70629;-26.026;27.976;2023-11-18T00:09:00;8.48;;;4.18;;
81150;SDS011;70629;-26.026;27.976;2023-11-18T00:09:39;9.23;;;4.30;;
81150;SDS011;70629;-26.026;27.976;2023-11-18T00:10:21;10.55;;;4.43;;
81150;SDS011;70629;-26.026;27.976;2023-11-18T00:11:02;9.02;;;3.35;;
81150;SDS011;70629;-26.026;27.976;2023-11-18T00:11:43;9.25;;;4.00;;
81150;SDS011;70629;-26.026;27.976;2023-11-18T00:12:23;9.10;;;4.10;;
81150;SDS011;70629;-26.026;27.976;2023-11-18T00:13:03;7.32;;;3.00;;
81150;SDS011;70629;-26.026;27.976;2023-11-18T00:13:43;8.77;;;3.40;;
81150;SDS011;70629;-26.026;27.976;2023-11-18T00:14:23;8.32;;;3.60;;
81150;SDS011;70629;-26.026;27.976;2023-11-18T00:15:03;9.50;;;3.40;;
81150;SDS011;70629;-26.026;27.976;2023-11-18T00:15:44;8.32;;;3.40;;
81150;SDS011;70629;-26.026;27.976;2023-11-18T00:16:24;7.30;;;3.50;;
81150;SDS011;70629;-26.026;27.976;2023-11-18T00:17:06;10.07;;;3.35;;
81150;SDS011;70629;-26.026;27.976;2023-11-18T00:17:46;8.57;;;3.42;;
81150;SDS011;70629;-26.026;27.976;2023-11-18T00:18:25;9.52;;;4.13;;
81150;SDS011;70629;-26.026;27.976;2023-11-18T00:19:05;11.63;;;3.58;;
81150;SDS011;70629;-26.026;27.976;2023-11-18T00:19:48;8.30;;;3.15;;
81150;SDS011;70629;-26.026;27.976;2023-11-18T00:20:28;8.32;;;3.13;;
81150;SDS011;70629;-26.026;27.976;2023-11-18T00:21:09;10.02;;;3.63;;
81150;SDS011;70629;-26.026;27.976;2023-11-18T00:21:50;6.00;;;2.92;;
81150;SDS011;70629;-26.026;27.976;2023-11-18T00:22:31;10.55;;;3.38;;
81150;SDS011;70629;-26.026;27.976;2023-11-18T00:23:11;7.45;;;3.42;;
81150;SDS011;70629;-26.026;27.976;2023-11-18T00:23:51;10.90;;;3.55;;
81150;SDS011;70629;-26.026;27.976;2023-11-18T00:24:32;10.77;;;3.80;;
81150;SDS011;70629;-26.026;27.976;2023-11-18T00:25:14;8.40;;;3.58;;
81150;SDS011;70629;-26.026;27.976;2023-11-18T00:25:54;7.35;;;3.03;;
81150;SDS011;70629;-26.026;27.976;2023-11-18T00:26:33;7.38;;;3.30;;
81150;SDS011;70629;-26.026;27.976;2023-11-18T00:27:14;11.10;;;3.45;;
81150;SDS011;70629;-26.026;27.976;2023-11-18T00:27:54;7.68;;;3.33;;
81150;SDS011;70629;-26.026;27.976;2023-11-18T00:28:34;7.18;;;3.10;;
81150;SDS011;70629;-26.026;27.976;2023-11-18T00:29:14;9.63;;;3.35;;
81150;SDS011;70629;-26.026;27.976;2023-11-18T00:29:54;12.45;;;3.92;;
81150;SDS011;70629;-26.026;27.976;2023-11-18T00:30:34;10.95;;;3.00;;
81150;SDS011;70629;-26.026;27.976;2023-11-18T00:31:14;9.50;;;3.40;;
81150;SDS011;70629;-26.026;27.976;2023-11-18T00:31:54;7.78;;;3.08;;
81150;SDS011;70629;-26.026;27.976;2023-11-18T00:32:33;9.45;;;3.20;;
81150;SDS011;70629;-26.026;27.976;2023-11-18T00:33:14;8.50;;;3.10;;
81150;SDS011;70629;-26.026;27.976;2023-11-18T00:33:54;7.63;;;2.67;;
81150;SDS011;70629;-26.026;27.976;2023-11-18T00:34:34;8.30;;;3.60;;
81150;SDS011;70629;-26.026;27.976;2023-11-18T00:35:14;10.30;;;3.53;;
81150;SDS011;70629;-26.026;27.976;2023-11-18T00:35:55;6.47;;;3.25;;
81150;SDS011;70629;-26.026;27.976;2023-11-18T00:36:34;11.90;;;3.28;;
81150;SDS011;70629;-26.026;27.976;2023-11-18T00:37:14;10.50;;;3.55;;
81150;SDS011;70629;-26.026;27.976;2023-11-18T00:37:54;10.65;;;3.10;;
81150;SDS011;70629;-26.026;27.976;2023-11-18T00:38:34;7.25;;;2.92;;
81150;SDS011;70629;-26.026;27.976;2023-11-18T00:39:16;6.82;;;3.00;;
81150;SDS011;70629;-26.026;27.976;2023-11-18T00:39:55;7.13;;;2.53;;
81150;SDS011;70629;-26.026;27.976;2023-11-18T00:40:35;7.45;;;3.00;;
81150;SDS011;70629;-26.026;27.976;2023-11-18T00:41:16;8.77;;;3.03;;
81150;SDS011;70629;-26.026;27.976;2023-11-18T00:41:56;7.78;;;2.90;;
81150;SDS011;70629;-26.026;27.976;2023-11-18T00:42:36;8.52;;;2.45;;
81150;SDS011;70629;-26.026;27.976;2023-11-18T00:43:15;9.30;;;3.10;;
81150;SDS011;70629;-26.026;27.976;2023-11-18T00:43:56;8.20;;;3.65;;
81150;SDS011;70629;-26.026;27.976;2023-11-18T00:44:36;8.00;;;2.90;;
81150;SDS011;70629;-26.026;27.976;2023-11-18T00:45:15;9.27;;;3.65;;
81150;SDS011;70629;-26.026;27.976;2023-11-18T00:45:56;9.30;;;2.60;;
81150;SDS011;70629;-26.026;27.976;2023-11-18T00:46:38;8.50;;;2.60;;
81150;SDS011;70629;-26.026;27.976;2023-11-18T00:47:18;10.77;;;3.08;;
81150;SDS011;70629;-26.026;27.976;2023-11-18T00:47:58;10.77;;;4.50;;
81150;SDS011;70629;-26.026;27.976;2023-11-18T00:48:38;9.60;;;3.38;;
81150;SDS011;70629;-26.026;27.976;2023-11-18T00:49:19;9.38;;;3.22;;
81150;SDS011;70629;-26.026;27.976;2023-11-18T00:49:58;9.75;;;3.35;;
81150;SDS011;70629;-26.026;27.976;2023-11-18T00:50:42;7.93;;;3.00;;
81150;SDS011;70629;-26.026;27.976;2023-11-18T00:51:22;9.27;;;3.17;;
81150;SDS011;70629;-26.026;27.976;2023-11-18T00:52:02;12.10;;;3.10;;
81150;SDS011;70629;-26.026;27.976;2023-11-18T00:52:42;7.93;;;3.00;;
81150;SDS011;70629;-26.026;27.976;2023-11-18T00:53:22;7.97;;;2.60;;
81150;SDS011;70629;-26.026;27.976;2023-11-18T00:54:04;8.38;;;2.95;;
81150;SDS011;70629;-26.026;27.976;2023-11-18T00:54:48;6.95;;;3.05;;
81150;SDS011;70629;-26.026;27.976;2023-11-18T00:55:28;6.18;;;2.95;;
81150;SDS011;70629;-26.026;27.976;2023-11-18T00:56:12;5.57;;;2.50;;
81150;SDS011;70629;-26.026;27.976;2023-11-18T00:56:56;6.95;;;2.80;;
81150;SDS011;70629;-26.026;27.976;2023-11-18T00:57:37;11.43;;;2.88;;
81150;SDS011;70629;-26.026;27.976;2023-11-18T00:58:18;8.15;;;2.80;;
81150;SDS011;70629;-26.026;27.976;2023-11-18T00:58:59;8.65;;;3.20;;
81150;SDS011;70629;-26.026;27.976;2023-11-18T00:59:42;6.55;;;2.63;;
81150;SDS011;70629;-26.026;27.976;2023-11-18T01:00:23;7.18;;;2.35;;
81150;SDS011;70629;-26.026;27.976;2023-11-18T01:01:05;5.78;;;2.40;;
81150;SDS011;70629;-26.026;27.976;2023-11-18T01:01:45;9.88;;;2.92;;
81150;SDS011;70629;-26.026;27.976;2023-11-18T01:02:25;7.85;;;3.17;;
81150;SDS011;70629;-26.026;27.976;2023-11-18T01:03:07;5.70;;;2.25;;
81150;SDS011;70629;-26.026;27.976;2023-11-18T01:03:49;8.75;;;2.60;;
81150;SDS011;70629;-26.026;27.976;2023-11-18T01:04:29;6.10;;;2.42;;
81150;SDS011;70629;-26.026;27.976;2023-11-18T01:05:11;7.85;;;2.45;;
81150;SDS011;70629;-26.026;27.976;2023-11-18T01:05:52;10.73;;;2.60;;
81150;SDS011;70629;-26.026;27.976;2023-11-18T01:06:32;7.90;;;3.08;;
81150;SDS011;70629;-26.026;27.976;2023-11-18T01:07:13;7.65;;;2.28;;
81150;SDS011;70629;-26.026;27.976;2023-11-18T01:07:53;5.38;;;2.20;;
81150;SDS011;70629;-26.026;27.976;2023-11-18T01:08:33;6.50;;;2.75;;
81150;SDS011;70629;-26.026;27.976;2023-11-18T01:09:13;7.57;;;2.60;;
81150;SDS011;70629;-26.026;27.976;2023-11-18T01:09:54;6.75;;;2.53;;
81150;SDS011;70629;-26.026;27.976;2023-11-18T01:10:34;8.98;;;2.65;;
81150;SDS011;70629;-26.026;27.976;2023-11-18T01:11:18;7.00;;;2.35;;
81150;SDS011;70629;-26.026;27.976;2023-11-18T01:11:58;8.48;;;2.78;;
81150;SDS011;70629;-26.026;27.976;2023-11-18T01:12:46;7.90;;;2.45;;
81150;SDS011;70629;-26.026;27.976;2023-11-18T01:13:25;7.93;;;2.75;;
81150;SDS011;70629;-26.026;27.976;2023-11-18T01:14:06;9.18;;;2.92;;
81150;SDS011;70629;-26.026;27.976;2023-11-18T01:14:46;8.90;;;3.13;;
81150;SDS011;70629;-26.026;27.976;2023-11-18T01:15:26;9.13;;;2.25;;
81150;SDS011;70629;-26.026;27.976;2023-11-18T01:16:06;7.30;;;2.40;;
81150;SDS011;70629;-26.026;27.976;2023-11-18T01:16:46;10.32;;;3.08;;
81150;SDS011;70629;-26.026;27.976;2023-11-18T01:17:26;7.72;;;2.75;;
81150;SDS011;70629;-26.026;27.976;2023-11-18T01:18:06;8.30;;;2.65;;
81150;SDS011;70629;-26.026;27.976;2023-11-18T01:18:46;7.03;;;2.60;;
81150;SDS011;70629;-26.026;27.976;2023-11-18T01:19:27;8.27;;;2.35;;
81150;SDS011;70629;-26.026;27.976;2023-11-18T01:20:07;6.78;;;2.17;;
81150;SDS011;70629;-26.026;27.976;2023-11-18T01:20:51;5.00;;;2.33;;
81150;SDS011;70629;-26.026;27.976;2023-11-18T01:21:31;7.28;;;2.20;;
81150;SDS011;70629;-26.026;27.976;2023-11-18T01:22:11;5.25;;;2.38;;
81150;SDS011;70629;-26.026;27.976;2023-11-18T01:22:51;6.93;;;2.40;;
81150;SDS011;70629;-26.026;27.976;2023-11-18T01:23:31;13.25;;;3.13;;
81150;SDS011;70629;-26.026;27.976;2023-11-18T01:24:10;6.88;;;2.60;;
81150;SDS011;70629;-26.026;27.976;2023-11-18T01:24:51;8.60;;;2.55;;
81150;SDS011;70629;-26.026;27.976;2023-11-18T01:25:31;7.70;;;2.40;;
81150;SDS011;70629;-26.026;27.976;2023-11-18T01:26:11;8.02;;;3.20;;
81150;SDS011;70629;-26.026;27.976;2023-11-18T01:26:54;9.18;;;2.60;;
81150;SDS011;70629;-26.026;27.976;2023-11-18T01:27:34;8.50;;;2.33;;
81150;SDS011;70629;-26.026;27.976;2023-11-18T01:28:14;8.73;;;2.22;;
81150;SDS011;70629;-26.026;27.976;2023-11-18T01:28:54;8.82;;;2.38;;
81150;SDS011;70629;-26.026;27.976;2023-11-18T01:29:34;9.38;;;2.17;;
81150;SDS011;70629;-26.026;27.976;2023-11-18T01:30:15;5.85;;;2.20;;
81150;SDS011;70629;-26.026;27.976;2023-11-18T01:30:55;7.60;;;2.42;;
81150;SDS011;70629;-26.026;27.976;2023-11-18T01:31:34;7.53;;;2.20;;
81150;SDS011;70629;-26.026;27.976;2023-11-18T01:32:29;5.72;;;2.22;;
81150;SDS011;70629;-26.026;27.976;2023-11-18T01:33:10;7.13;;;2.20;;
81150;SDS011;70629;-26.026;27.976;2023-11-18T01:33:50;6.90;;;2.38;;
81150;SDS011;70629;-26.026;27.976;2023-11-18T01:34:30;5.57;;;1.80;;
81150;SDS011;70629;-26.026;27.976;2023-11-18T01:35:09;5.30;;;3.50;;
81150;SDS011;70629;-26.026;27.976;2023-11-18T01:35:52;5.82;;;2.95;;
81150;SDS011;70629;-26.026;27.976;2023-11-18T01:36:33;5.53;;;2.13;;
81150;SDS011;70629;-26.026;27.976;2023-11-18T01:37:13;7.88;;;2.05;;
81150;SDS011;70629;-26.026;27.976;2023-11-18T01:37:53;6.05;;;1.85;;
81150;SDS011;70629;-26.026;27.976;2023-11-18T01:38:34;7.72;;;2.50;;
81150;SDS011;70629;-26.026;27.976;2023-11-18T01:39:16;8.07;;;2.30;;
81150;SDS011;70629;-26.026;27.976;2023-11-18T01:39:56;7.85;;;2.25;;
81150;SDS011;70629;-26.026;27.976;2023-11-18T01:40:36;7.47;;;2.63;;
81150;SDS011;70629;-26.026;27.976;2023-11-18T01:41:17;5.28;;;2.10;;
81150;SDS011;70629;-26.026;27.976;2023-11-18T01:41:58;5.53;;;2.20;;
81150;SDS011;70629;-26.026;27.976;2023-11-18T01:42:43;5.15;;;2.13;;
81150;SDS011;70629;-26.026;27.976;2023-11-18T01:43:25;8.07;;;2.20;;
81150;SDS011;70629;-26.026;27.976;2023-11-18T01:44:05;4.78;;;1.83;;
81150;SDS011;70629;-26.026;27.976;2023-11-18T01:44:46;10.15;;;2.53;;
81150;SDS011;70629;-26.026;27.976;2023-11-18T01:45:27;7.95;;;2.40;;
81150;SDS011;70629;-26.026;27.976;2023-11-18T01:46:07;7.25;;;2.72;;
81150;SDS011;70629;-26.026;27.976;2023-11-18T01:46:49;7.43;;;2.45;;
81150;SDS011;70629;-26.026;27.976;2023-11-18T01:47:33;7.50;;;2.55;;
81150;SDS011;70629;-26.026;27.976;2023-11-18T01:48:13;7.07;;;2.22;;
81150;SDS011;70629;-26.026;27.976;2023-11-18T01:48:54;8.43;;;2.55;;
81150;SDS011;70629;-26.026;27.976;2023-11-18T01:49:34;9.45;;;2.50;;
81150;SDS011;70629;-26.026;27.976;2023-11-18T01:50:18;5.55;;;2.10;;
81150;SDS011;70629;-26.026;27.976;2023-11-18T01:50:59;8.05;;;2.78;;
81150;SDS011;70629;-26.026;27.976;2023-11-18T01:51:44;6.53;;;2.38;;
81150;SDS011;70629;-26.026;27.976;2023-11-18T01:52:27;6.10;;;2.67;;
81150;SDS011;70629;-26.026;27.976;2023-11-18T01:53:10;6.60;;;2.72;;
81150;SDS011;70629;-26.026;27.976;2023-11-18T01:53:53;9.05;;;3.13;;
81150;SDS011;70629;-26.026;27.976;2023-11-18T01:54:38;5.25;;;2.30;;
81150;SDS011;70629;-26.026;27.976;2023-11-18T01:55:19;5.13;;;2.60;;
81150;SDS011;70629;-26.026;27.976;2023-11-18T01:56:00;6.35;;;2.35;;
81150;SDS011;70629;-26.026;27.976;2023-11-18T01:56:43;7.10;;;2.75;;
81150;SDS011;70629;-26.026;27.976;2023-11-18T01:57:26;4.28;;;2.05;;
81150;SDS011;70629;-26.026;27.976;2023-11-18T01:58:06;6.30;;;2.50;;
81150;SDS011;70629;-26.026;27.976;2023-11-18T01:58:49;7.35;;;2.80;;
81150;SDS011;70629;-26.026;27.976;2023-11-18T01:59:30;9.40;;;2.50;;
81150;SDS011;70629;-26.026;27.976;2023-11-18T02:00:12;8.95;;;2.92;;
81150;SDS011;70629;-26.026;27.976;2023-11-18T02:00:56;8.88;;;2.30;;
81150;SDS011;70629;-26.026;27.976;2023-11-18T02:01:36;7.65;;;2.45;;
81150;SDS011;70629;-26.026;27.976;2023-11-18T02:02:19;7.07;;;2.30;;
81150;SDS011;70629;-26.026;27.976;2023-11-18T02:03:02;6.22;;;2.00;;
81150;SDS011;70629;-26.026;27.976;2023-11-18T02:03:43;7.57;;;3.28;;
81150;SDS011;70629;-26.026;27.976;2023-11-18T02:04:24;6.70;;;2.20;;
81150;SDS011;70629;-26.026;27.976;2023-11-18T02:05:04;5.32;;;2.45;;
81150;SDS011;70629;-26.026;27.976;2023-11-18T02:05:46;6.22;;;3.22;;
81150;SDS011;70629;-26.026;27.976;2023-11-18T02:06:26;6.00;;;2.50;;
81150;SDS011;70629;-26.026;27.976;2023-11-18T02:07:09;5.68;;;2.15;;
81150;SDS011;70629;-26.026;27.976;2023-11-18T02:07:53;6.57;;;2.03;;
81150;SDS011;70629;-26.026;27.976;2023-11-18T02:08:33;7.93;;;2.47;;
81150;SDS011;70629;-26.026;27.976;2023-11-18T02:09:18;6.13;;;2.28;;
81150;SDS011;70629;-26.026;27.976;2023-11-18T02:10:06;5.35;;;2.00;;
81150;SDS011;70629;-26.026;27.976;2023-11-18T02:10:54;4.97;;;2.03;;
81150;SDS011;70629;-26.026;27.976;2023-11-18T02:11:42;11.77;;;2.42;;
81150;SDS011;70629;-26.026;27.976;2023-11-18T02:12:34;7.50;;;2.03;;
81150;SDS011;70629;-26.026;27.976;2023-11-18T02:13:32;5.70;;;2.50;;
81150;SDS011;70629;-26.026;27.976;2023-11-18T02:14:15;6.85;;;2.17;;
81150;SDS011;70629;-26.026;27.976;2023-11-18T02:14:57;6.05;;;2.10;;
81150;SDS011;70629;-26.026;27.976;2023-11-18T02:15:40;5.18;;;2.13;;
81150;SDS011;70629;-26.026;27.976;2023-11-18T02:16:21;6.22;;;1.90;;
81150;SDS011;70629;-26.026;27.976;2023-11-18T02:17:02;6.00;;;1.60;;
81150;SDS011;70629;-26.026;27.976;2023-11-18T02:17:44;4.90;;;2.15;;
81150;SDS011;70629;-26.026;27.976;2023-11-18T02:18:26;4.47;;;1.73;;
81150;SDS011;70629;-26.026;27.976;2023-11-18T02:19:16;4.35;;;1.60;;
81150;SDS011;70629;-26.026;27.976;2023-11-18T02:20:00;4.78;;;1.85;;
81150;SDS011;70629;-26.026;27.976;2023-11-18T02:20:41;6.00;;;2.03;;
81150;SDS011;70629;-26.026;27.976;2023-11-18T02:21:23;3.80;;;1.50;;
81150;SDS011;70629;-26.026;27.976;2023-11-18T02:22:04;4.07;;;1.80;;
81150;SDS011;70629;-26.026;27.976;2023-11-18T02:22:50;6.05;;;1.85;;
81150;SDS011;70629;-26.026;27.976;2023-11-18T02:23:31;4.65;;;2.03;;
81150;SDS011;70629;-26.026;27.976;2023-11-18T02:24:11;5.72;;;2.10;;
81150;SDS011;70629;-26.026;27.976;2023-11-18T02:25:03;6.45;;;2.03;;
81150;SDS011;70629;-26.026;27.976;2023-11-18T02:25:48;5.15;;;2.10;;
81150;SDS011;70629;-26.026;27.976;2023-11-18T02:26:28;5.28;;;1.98;;
81150;SDS011;70629;-26.026;27.976;2023-11-18T02:27:09;4.20;;;1.90;;
81150;SDS011;70629;-26.026;27.976;2023-11-18T02:27:53;6.63;;;2.22;;
81150;SDS011;70629;-26.026;27.976;2023-11-18T02:28:33;5.05;;;1.80;;
81150;SDS011;70629;-26.026;27.976;2023-11-18T02:29:13;4.57;;;2.00;;
81150;SDS011;70629;-26.026;27.976;2023-11-18T02:29:53;10.75;;;2.33;;
81150;SDS011;70629;-26.026;27.976;2023-11-18T02:30:33;7.03;;;2.20;;
81150;SDS011;70629;-26.026;27.976;2023-11-18T02:31:15;6.18;;;1.90;;
81150;SDS011;70629;-26.026;27.976;2023-11-18T02:34:04;5.22;;;1.65;;
81150;SDS011;70629;-26.026;27.976;2023-11-18T02:34:51;6.00;;;2.10;;
81150;SDS011;70629;-26.026;27.976;2023-11-18T02:35:40;5.78;;;2.03;;
81150;SDS011;70629;-26.026;27.976;2023-11-18T02:36:29;3.58;;;1.83;;
81150;SDS011;70629;-26.026;27.976;2023-11-18T02:37:18;6.80;;;2.17;;
81150;SDS011;70629;-26.026;27.976;2023-11-18T02:37:58;6.72;;;1.83;;
81150;SDS011;70629;-26.026;27.976;2023-11-18T02:38:46;6.32;;;2.05;;
81150;SDS011;70629;-26.026;27.976;2023-11-18T02:39:35;4.05;;;1.85;;
81150;SDS011;70629;-26.026;27.976;2023-11-18T02:40:23;4.85;;;2.03;;
81150;SDS011;70629;-26.026;27.976;2023-11-18T02:41:12;5.32;;;1.75;;
81150;SDS011;70629;-26.026;27.976;2023-11-18T02:41:52;6.65;;;1.80;;
81150;SDS011;70629;-26.026;27.976;2023-11-18T02:42:36;5.03;;;2.33;;
81150;SDS011;70629;-26.026;27.976;2023-11-18T02:43:17;5.20;;;1.85;;
81150;SDS011;70629;-26.026;27.976;2023-11-18T02:43:58;4.35;;;1.95;;
81150;SDS011;70629;-26.026;27.976;2023-11-18T02:44:39;6.75;;;1.90;;
81150;SDS011;70629;-26.026;27.976;2023-11-18T02:45:20;4.90;;;1.90;;
81150;SDS011;70629;-26.026;27.976;2023-11-18T02:46:00;6.43;;;2.00;;
81150;SDS011;70629;-26.026;27.976;2023-11-18T02:46:42;5.32;;;1.90;;
81150;SDS011;70629;-26.026;27.976;2023-11-18T02:47:23;5.60;;;2.10;;
81150;SDS011;70629;-26.026;27.976;2023-11-18T02:48:04;7.20;;;2.25;;
81150;SDS011;70629;-26.026;27.976;2023-11-18T02:48:45;6.72;;;2.22;;
81150;SDS011;70629;-26.026;27.976;2023-11-18T02:49:26;3.78;;;1.95;;
81150;SDS011;70629;-26.026;27.976;2023-11-18T02:50:06;5.68;;;2.15;;
81150;SDS011;70629;-26.026;27.976;2023-11-18T02:50:49;4.60;;;1.73;;
81150;SDS011;70629;-26.026;27.976;2023-11-18T02:51:29;4.82;;;1.83;;
81150;SDS011;70629;-26.026;27.976;2023-11-18T02:52:18;7.68;;;2.00;;
81150;SDS011;70629;-26.026;27.976;2023-11-18T02:52:58;4.20;;;1.80;;
81150;SDS011;70629;-26.026;27.976;2023-11-18T02:53:38;6.40;;;1.88;;
81150;SDS011;70629;-26.026;27.976;2023-11-18T02:54:20;5.03;;;1.70;;
81150;SDS011;70629;-26.026;27.976;2023-11-18T02:55:01;6.05;;;2.10;;
81150;SDS011;70629;-26.026;27.976;2023-11-18T02:55:41;5.07;;;1.70;;
81150;SDS011;70629;-26.026;27.976;2023-11-18T02:56:21;5.22;;;2.15;;
81150;SDS011;70629;-26.026;27.976;2023-11-18T02:57:01;4.85;;;2.05;;
81150;SDS011;70629;-26.026;27.976;2023-11-18T02:57:41;3.72;;;1.73;;
81150;SDS011;70629;-26.026;27.976;2023-11-18T02:58:20;3.30;;;1.50;;
81150;SDS011;70629;-26.026;27.976;2023-11-18T02:59:00;3.72;;;1.70;;
81150;SDS011;70629;-26.026;27.976;2023-11-18T02:59:44;4.07;;;1.83;;
81150;SDS011;70629;-26.026;27.976;2023-11-18T03:00:26;4.10;;;2.00;;
81150;SDS011;70629;-26.026;27.976;2023-11-18T03:01:07;5.30;;;1.73;;
81150;SDS011;70629;-26.026;27.976;2023-11-18T03:01:47;4.60;;;1.80;;
81150;SDS011;70629;-26.026;27.976;2023-11-18T03:02:27;6.95;;;1.65;;
81150;SDS011;70629;-26.026;27.976;2023-11-18T03:03:09;4.38;;;1.55;;
81150;SDS011;70629;-26.026;27.976;2023-11-18T03:03:50;4.32;;;1.90;;
81150;SDS011;70629;-26.026;27.976;2023-11-18T03:04:30;4.80;;;1.70;;
81150;SDS011;70629;-26.026;27.976;2023-11-18T03:05:09;4.32;;;1.80;;
81150;SDS011;70629;-26.026;27.976;2023-11-18T03:05:51;6.57;;;1.83;;
81150;SDS011;70629;-26.026;27.976;2023-11-18T03:06:30;5.18;;;1.63;;
81150;SDS011;70629;-26.026;27.976;2023-11-18T03:07:14;6.20;;;1.90;;
81150;SDS011;70629;-26.026;27.976;2023-11-18T03:07:55;4.85;;;1.83;;
81150;SDS011;70629;-26.026;27.976;2023-11-18T03:08:37;4.35;;;1.83;;
81150;SDS011;70629;-26.026;27.976;2023-11-18T03:09:17;4.82;;;2.10;;
81150;SDS011;70629;-26.026;27.976;2023-11-18T03:09:57;3.75;;;1.65;;
81150;SDS011;70629;-26.026;27.976;2023-11-18T03:10:39;4.28;;;1.70;;
81150;SDS011;70629;-26.026;27.976;2023-11-18T03:11:21;4.15;;;1.90;;
81150;SDS011;70629;-26.026;27.976;2023-11-18T03:12:01;5.25;;;1.85;;
81150;SDS011;70629;-26.026;27.976;2023-11-18T03:12:41;4.03;;;1.63;;
81150;SDS011;70629;-26.026;27.976;2023-11-18T03:13:21;6.15;;;1.80;;
81150;SDS011;70629;-26.026;27.976;2023-11-18T03:14:02;5.47;;;1.98;;
81150;SDS011;70629;-26.026;27.976;2023-11-18T03:14:43;5.22;;;1.75;;
81150;SDS011;70629;-26.026;27.976;2023-11-18T03:15:23;9.93;;;2.08;;
81150;SDS011;70629;-26.026;27.976;2023-11-18T03:16:07;4.05;;;1.58;;
81150;SDS011;70629;-26.026;27.976;2023-11-18T03:16:50;5.07;;;2.00;;
81150;SDS011;70629;-26.026;27.976;2023-11-18T03:17:30;4.68;;;2.08;;
81150;SDS011;70629;-26.026;27.976;2023-11-18T03:18:10;4.57;;;1.77;;
81150;SDS011;70629;-26.026;27.976;2023-11-18T03:18:50;4.10;;;1.73;;
81150;SDS011;70629;-26.026;27.976;2023-11-18T03:19:30;5.88;;;1.80;;
81150;SDS011;70629;-26.026;27.976;2023-11-18T03:20:11;3.75;;;1.63;;
81150;SDS011;70629;-26.026;27.976;2023-11-18T03:20:55;6.68;;;2.15;;
81150;SDS011;70629;-26.026;27.976;2023-11-18T03:21:35;8.02;;;1.90;;
81150;SDS011;70629;-26.026;27.976;2023-11-18T03:22:16;5.13;;;1.70;;
81150;SDS011;70629;-26.026;27.976;2023-11-18T03:22:55;6.03;;;2.10;;
81150;SDS011;70629;-26.026;27.976;2023-11-18T03:23:41;5.57;;;2.00;;
81150;SDS011;70629;-26.026;27.976;2023-11-18T03:24:21;7.68;;;2.20;;
81150;SDS011;70629;-26.026;27.976;2023-11-18T03:25:02;4.38;;;2.00;;
81150;SDS011;70629;-26.026;27.976;2023-11-18T03:25:44;5.55;;;2.25;;
81150;SDS011;70629;-26.026;27.976;2023-11-18T03:26:25;7.03;;;2.45;;
81150;SDS011;70629;-26.026;27.976;2023-11-18T03:27:05;3.88;;;1.50;;
81150;SDS011;70629;-26.026;27.976;2023-11-18T03:27:48;4.85;;;1.85;;
81150;SDS011;70629;-26.026;27.976;2023-11-18T03:28:28;5.38;;;2.22;;
81150;SDS011;70629;-26.026;27.976;2023-11-18T03:29:08;9.30;;;2.75;;
81150;SDS011;70629;-26.026;27.976;2023-11-18T03:29:49;4.40;;;1.98;;
81150;SDS011;70629;-26.026;27.976;2023-11-18T03:30:32;7.55;;;1.95;;
81150;SDS011;70629;-26.026;27.976;2023-11-18T03:31:12;3.88;;;1.80;;
81150;SDS011;70629;-26.026;27.976;2023-11-18T03:31:53;5.03;;;1.85;;
81150;SDS011;70629;-26.026;27.976;2023-11-18T03:32:33;4.90;;;2.10;;
81150;SDS011;70629;-26.026;27.976;2023-11-18T03:33:14;6.05;;;2.15;;
81150;SDS011;70629;-26.026;27.976;2023-11-18T03:33:54;5.00;;;2.22;;
81150;SDS011;70629;-26.026;27.976;2023-11-18T03:34:34;7.60;;;2.72;;
81150;SDS011;70629;-26.026;27.976;2023-11-18T03:35:14;6.65;;;1.83;;
81150;SDS011;70629;-26.026;27.976;2023-11-18T03:35:54;9.07;;;2.90;;
81150;SDS011;70629;-26.026;27.976;2023-11-18T03:36:34;6.22;;;2.60;;
81150;SDS011;70629;-26.026;27.976;2023-11-18T03:37:14;6.55;;;2.47;;
81150;SDS011;70629;-26.026;27.976;2023-11-18T03:37:54;7.40;;;2.20;;
81150;SDS011;70629;-26.026;27.976;2023-11-18T03:38:34;6.57;;;2.30;;
81150;SDS011;70629;-26.026;27.976;2023-11-18T03:39:14;7.80;;;2.22;;
81150;SDS011;70629;-26.026;27.976;2023-11-18T03:39:54;6.82;;;2.30;;
81150;SDS011;70629;-26.026;27.976;2023-11-18T03:40:33;6.65;;;1.90;;
81150;SDS011;70629;-26.026;27.976;2023-11-18T03:41:14;5.18;;;2.13;;
81150;SDS011;70629;-26.026;27.976;2023-11-18T03:41:54;6.93;;;2.15;;
81150;SDS011;70629;-26.026;27.976;2023-11-18T03:42:36;7.25;;;2.20;;
81150;SDS011;70629;-26.026;27.976;2023-11-18T03:43:16;7.93;;;2.63;;
81150;SDS011;70629;-26.026;27.976;2023-11-18T03:43:56;9.68;;;2.60;;
81150;SDS011;70629;-26.026;27.976;2023-11-18T03:44:36;8.52;;;2.67;;
81150;SDS011;70629;-26.026;27.976;2023-11-18T03:45:16;4.20;;;2.03;;
81150;SDS011;70629;-26.026;27.976;2023-11-18T03:45:57;4.35;;;1.90;;
81150;SDS011;70629;-26.026;27.976;2023-11-18T03:46:37;4.25;;;1.83;;
81150;SDS011;70629;-26.026;27.976;2023-11-18T03:47:17;10.25;;;2.50;;
81150;SDS011;70629;-26.026;27.976;2023-11-18T03:47:57;5.38;;;1.98;;
81150;SDS011;70629;-26.026;27.976;2023-11-18T03:48:36;6.07;;;2.22;;
81150;SDS011;70629;-26.026;27.976;2023-11-18T03:49:17;5.40;;;2.10;;
81150;SDS011;70629;-26.026;27.976;2023-11-18T03:49:58;5.55;;;2.42;;
81150;SDS011;70629;-26.026;27.976;2023-11-18T03:50:38;5.28;;;2.05;;
81150;SDS011;70629;-26.026;27.976;2023-11-18T03:51:18;7.22;;;2.15;;
81150;SDS011;70629;-26.026;27.976;2023-11-18T03:51:58;7.72;;;2.25;;
81150;SDS011;70629;-26.026;27.976;2023-11-18T03:52:40;8.60;;;2.50;;
81150;SDS011;70629;-26.026;27.976;2023-11-18T03:53:19;6.75;;;2.50;;
81150;SDS011;70629;-26.026;27.976;2023-11-18T03:53:59;12.52;;;2.92;;
81150;SDS011;70629;-26.026;27.976;2023-11-18T03:54:40;12.75;;;3.60;;
81150;SDS011;70629;-26.026;27.976;2023-11-18T03:55:21;7.40;;;3.55;;
81150;SDS011;70629;-26.026;27.976;2023-11-18T03:56:01;7.85;;;2.15;;
81150;SDS011;70629;-26.026;27.976;2023-11-18T03:56:44;8.02;;;2.35;;
81150;SDS011;70629;-26.026;27.976;2023-11-18T03:57:24;7.88;;;2.45;;
81150;SDS011;70629;-26.026;27.976;2023-11-18T03:58:04;9.13;;;2.90;;
81150;SDS011;70629;-26.026;27.976;2023-11-18T03:58:44;12.18;;;3.53;;
81150;SDS011;70629;-26.026;27.976;2023-11-18T03:59:27;5.53;;;2.38;;
81150;SDS011;70629;-26.026;27.976;2023-11-18T04:00:07;6.40;;;2.08;;
81150;SDS011;70629;-26.026;27.976;2023-11-18T04:00:50;5.07;;;2.13;;
81150;SDS011;70629;-26.026;27.976;2023-11-18T04:01:30;4.80;;;1.92;;
81150;SDS011;70629;-26.026;27.976;2023-11-18T04:02:11;5.43;;;2.47;;
81150;SDS011;70629;-26.026;27.976;2023-11-18T04:02:51;7.13;;;1.98;;
81150;SDS011;70629;-26.026;27.976;2023-11-18T04:03:31;7.45;;;2.30;;